sensor_id;sensor_type;location;lat;lon;timestamp;pressure;altitude;pressure_sealevel;temperature;humidity
81909;BME280;71372;43.514;1.512;2023-12-20T00:01:35;101140.16;;;7.62;79.43
81909;BME280;71372;43.514;1.512;2023-12-20T00:04:02;101133.91;;;7.65;79.59
81909;BME280;71372;43.514;1.512;2023-12-20T00:06:29;101125.97;;;7.65;79.57
81909;BME280;71372;43.514;1.512;2023-12-20T00:08:55;101118.84;;;7.67;79.55
81909;BME280;71372;43.514;1.512;2023-12-20T00:11:21;101119.69;;;7.69;79.65
81909;BME280;71372;43.514;1.512;2023-12-20T00:13:48;101107.25;;;7.74;79.57
81909;BME280;71372;43.514;1.512;2023-12-20T00:16:14;101111.63;;;7.75;79.31
81909;BME280;71372;43.514;1.512;2023-12-20T00:18:40;101108.22;;;7.70;79.19
81909;BME280;71372;43.514;1.512;2023-12-20T00:21:06;101108.19;;;7.72;78.83
81909;BME280;71372;43.514;1.512;2023-12-20T00:23:32;101112.50;;;7.76;79.18
81909;BME280;71372;43.514;1.512;2023-12-20T00:25:58;101105.50;;;7.73;79.29
81909;BME280;71372;43.514;1.512;2023-12-20T00:28:24;101113.41;;;7.75;79.11
81909;BME280;71372;43.514;1.512;2023-12-20T00:30:50;101104.56;;;7.76;79.72
81909;BME280;71372;43.514;1.512;2023-12-20T00:33:16;101095.69;;;7.77;78.65
81909;BME280;71372;43.514;1.512;2023-12-20T00:35:42;101086.81;;;7.79;79.09
81909;BME280;71372;43.514;1.512;2023-12-20T00:38:07;101080.56;;;7.83;78.58
81909;BME280;71372;43.514;1.512;2023-12-20T00:40:34;101071.69;;;7.84;78.57
81909;BME280;71372;43.514;1.512;2023-12-20T00:43:00;101065.50;;;7.85;79.01
81909;BME280;71372;43.514;1.512;2023-12-20T00:45:26;101067.22;;;7.86;78.75
81909;BME280;71372;43.514;1.512;2023-12-20T00:47:52;101068.13;;;7.85;78.79
81909;BME280;71372;43.514;1.512;2023-12-20T00:50:18;101063.69;;;7.87;79.28
81909;BME280;71372;43.514;1.512;2023-12-20T00:52:44;101053.88;;;7.91;79.34
81909;BME280;71372;43.514;1.512;2023-12-20T00:55:10;101053.81;;;7.94;78.78
81909;BME280;71372;43.514;1.512;2023-12-20T00:57:36;101046.75;;;7.95;78.85
81909;BME280;71372;43.514;1.512;2023-12-20T01:00:02;101049.41;;;7.93;78.95
81909;BME280;71372;43.514;1.512;2023-12-20T01:02:28;101050.31;;;7.94;78.75
81909;BME280;71372;43.514;1.512;2023-12-20T01:04:54;101052.06;;;7.93;79.36
81909;BME280;71372;43.514;1.512;2023-12-20T01:07:20;101050.16;;;8.00;78.81
81909;BME280;71372;43.514;1.512;2023-12-20T01:09:45;101050.22;;;7.97;79.04
81909;BME280;71372;43.514;1.512;2023-12-20T01:12:11;101048.44;;;7.97;78.64
81909;BME280;71372;43.514;1.512;2023-12-20T01:14:37;101045.75;;;7.99;79.28
81909;BME280;71372;43.514;1.512;2023-12-20T01:17:05;101041.22;;;8.04;79.40
81909;BME280;71372;43.514;1.512;2023-12-20T01:19:31;101032.34;;;8.05;79.32
81909;BME280;71372;43.514;1.512;2023-12-20T01:21:56;101038.53;;;8.07;78.62
81909;BME280;71372;43.514;1.512;2023-12-20T01:24:22;101035.91;;;8.04;79.04
81909;BME280;71372;43.514;1.512;2023-12-20T01:26:48;101031.38;;;8.10;79.23
81909;BME280;71372;43.514;1.512;2023-12-20T01:29:15;101024.25;;;8.12;79.05
81909;BME280;71372;43.514;1.512;2023-12-20T01:31:41;101027.69;;;8.16;78.85
81909;BME280;71372;43.514;1.512;2023-12-20T01:34:07;101024.16;;;8.15;79.02
81909;BME280;71372;43.514;1.512;2023-12-20T01:36:33;101030.41;;;8.13;78.46
81909;BME280;71372;43.514;1.512;2023-12-20T01:38:59;101014.44;;;8.16;78.83
81909;BME280;71372;43.514;1.512;2023-12-20T01:41:25;101019.59;;;8.22;78.75
81909;BME280;71372;43.514;1.512;2023-12-20T01:43:51;101015.97;;;8.26;78.70
81909;BME280;71372;43.514;1.512;2023-12-20T01:46:19;101013.28;;;8.28;78.78
81909;BME280;71372;43.514;1.512;2023-12-20T01:48:47;101009.72;;;8.29;78.65
81909;BME280;71372;43.514;1.512;2023-12-20T01:51:13;101013.31;;;8.26;78.71
81909;BME280;71372;43.514;1.512;2023-12-20T01:53:40;101002.66;;;8.28;78.23
81909;BME280;71372;43.514;1.512;2023-12-20T01:56:08;101003.53;;;8.28;78.61
81909;BME280;71372;43.514;1.512;2023-12-20T01:58:34;101005.31;;;8.29;78.76
81909;BME280;71372;43.514;1.512;2023-12-20T02:01:02;101003.53;;;8.28;78.40
81909;BME280;71372;43.514;1.512;2023-12-20T02:03:28;100996.53;;;8.26;78.25
81909;BME280;71372;43.514;1.512;2023-12-20T02:05:54;100992.88;;;8.31;78.33
81909;BME280;71372;43.514;1.512;2023-12-20T02:08:20;100991.97;;;8.32;78.55
81909;BME280;71372;43.514;1.512;2023-12-20T02:10:46;100981.31;;;8.34;78.11
81909;BME280;71372;43.514;1.512;2023-12-20T02:13:13;100979.44;;;8.39;77.94
81909;BME280;71372;43.514;1.512;2023-12-20T02:15:39;100974.03;;;8.43;78.22
81909;BME280;71372;43.514;1.512;2023-12-20T02:18:07;100973.16;;;8.43;77.29
81909;BME280;71372;43.514;1.512;2023-12-20T02:20:33;100970.47;;;8.44;77.52
81909;BME280;71372;43.514;1.512;2023-12-20T02:22:59;100971.28;;;8.46;78.19
81909;BME280;71372;43.514;1.512;2023-12-20T02:25:25;100958.91;;;8.47;77.82
81909;BME280;71372;43.514;1.512;2023-12-20T02:27:50;100958.84;;;8.48;78.13
81909;BME280;71372;43.514;1.512;2023-12-20T02:30:17;100949.06;;;8.50;77.65
81909;BME280;71372;43.514;1.512;2023-12-20T02:32:43;100939.38;;;8.49;77.89
81909;BME280;71372;43.514;1.512;2023-12-20T02:35:09;100936.66;;;8.53;77.93
81909;BME280;71372;43.514;1.512;2023-12-20T02:37:35;100930.44;;;8.54;78.05
81909;BME280;71372;43.514;1.512;2023-12-20T02:40:01;100934.88;;;8.53;78.23
81909;BME280;71372;43.514;1.512;2023-12-20T02:42:27;100939.28;;;8.54;78.09
81909;BME280;71372;43.514;1.512;2023-12-20T02:44:52;100943.72;;;8.52;77.71
81909;BME280;71372;43.514;1.512;2023-12-20T02:47:18;100943.72;;;8.54;77.52
81909;BME280;71372;43.514;1.512;2023-12-20T02:49:44;100934.88;;;8.52;77.15
81909;BME280;71372;43.514;1.512;2023-12-20T02:52:10;100933.09;;;8.54;77.67
81909;BME280;71372;43.514;1.512;2023-12-20T02:54:36;100926.88;;;8.55;77.65
81909;BME280;71372;43.514;1.512;2023-12-20T02:57:02;100923.31;;;8.56;77.90
81909;BME280;71372;43.514;1.512;2023-12-20T02:59:28;100926.84;;;8.56;77.59
81909;BME280;71372;43.514;1.512;2023-12-20T03:01:54;100921.47;;;8.58;77.77
81909;BME280;71372;43.514;1.512;2023-12-20T03:04:20;100910.88;;;8.58;77.45
81909;BME280;71372;43.514;1.512;2023-12-20T03:06:46;100905.50;;;8.59;78.20
81909;BME280;71372;43.514;1.512;2023-12-20T03:09:12;100896.69;;;8.59;77.62
81909;BME280;71372;43.514;1.512;2023-12-20T03:11:38;100887.81;;;8.60;77.44
81909;BME280;71372;43.514;1.512;2023-12-20T03:14:04;100883.38;;;8.60;78.32
81909;BME280;71372;43.514;1.512;2023-12-20T03:16:30;100887.81;;;8.60;77.94
81909;BME280;71372;43.514;1.512;2023-12-20T03:18:56;100892.25;;;8.59;78.11
81909;BME280;71372;43.514;1.512;2023-12-20T03:21:22;100883.41;;;8.59;77.93
81909;BME280;71372;43.514;1.512;2023-12-20T03:23:48;100884.31;;;8.58;77.87
81909;BME280;71372;43.514;1.512;2023-12-20T03:26:14;100879.00;;;8.58;78.69
81909;BME280;71372;43.514;1.512;2023-12-20T03:28:40;100884.41;;;8.55;78.81
81909;BME280;71372;43.514;1.512;2023-12-20T03:31:06;100892.41;;;8.53;78.62
81909;BME280;71372;43.514;1.512;2023-12-20T03:33:32;100888.91;;;8.51;78.83
81909;BME280;71372;43.514;1.512;2023-12-20T03:35:58;100883.66;;;8.49;78.70
81909;BME280;71372;43.514;1.512;2023-12-20T03:38:24;100877.47;;;8.49;78.97
81909;BME280;71372;43.514;1.512;2023-12-20T03:40:50;100882.81;;;8.47;79.38
81909;BME280;71372;43.514;1.512;2023-12-20T03:43:16;100883.69;;;8.48;79.26
81909;BME280;71372;43.514;1.512;2023-12-20T03:45:42;100880.16;;;8.47;79.80
81909;BME280;71372;43.514;1.512;2023-12-20T03:48:09;100883.75;;;8.46;79.62
81909;BME280;71372;43.514;1.512;2023-12-20T03:50:35;100885.56;;;8.44;79.71
81909;BME280;71372;43.514;1.512;2023-12-20T03:53:01;100873.25;;;8.40;80.42
81909;BME280;71372;43.514;1.512;2023-12-20T03:55:27;100875.09;;;8.38;79.89
81909;BME280;71372;43.514;1.512;2023-12-20T03:57:53;100875.13;;;8.37;81.00
81909;BME280;71372;43.514;1.512;2023-12-20T04:00:19;100874.31;;;8.35;80.22
81909;BME280;71372;43.514;1.512;2023-12-20T04:02:45;100862.94;;;8.30;80.74
81909;BME280;71372;43.514;1.512;2023-12-20T04:05:11;100862.94;;;8.28;80.47
81909;BME280;71372;43.514;1.512;2023-12-20T04:07:38;100861.16;;;8.29;81.23
81909;BME280;71372;43.514;1.512;2023-12-20T04:10:04;100858.69;;;8.23;81.69
81909;BME280;71372;43.514;1.512;2023-12-20T04:12:31;100860.41;;;8.24;81.57
81909;BME280;71372;43.514;1.512;2023-12-20T04:14:57;100851.59;;;8.23;81.45
81909;BME280;71372;43.514;1.512;2023-12-20T04:17:23;100850.75;;;8.21;81.98
81909;BME280;71372;43.514;1.512;2023-12-20T04:19:50;100849.06;;;8.18;81.89
81909;BME280;71372;43.514;1.512;2023-12-20T04:22:17;100842.94;;;8.15;81.76
81909;BME280;71372;43.514;1.512;2023-12-20T04:24:43;100837.66;;;8.15;81.98
81909;BME280;71372;43.514;1.512;2023-12-20T04:27:09;100836.91;;;8.10;81.81
81909;BME280;71372;43.514;1.512;2023-12-20T04:29:35;100832.50;;;8.09;82.19
81909;BME280;71372;43.514;1.512;2023-12-20T04:32:01;100837.97;;;8.03;82.66
81909;BME280;71372;43.514;1.512;2023-12-20T04:34:27;100831.72;;;8.05;82.43
81909;BME280;71372;43.514;1.512;2023-12-20T04:36:53;100829.19;;;8.01;83.37
81909;BME280;71372;43.514;1.512;2023-12-20T04:39:19;100833.59;;;8.00;82.79
81909;BME280;71372;43.514;1.512;2023-12-20T04:41:45;100835.25;;;8.04;83.57
81909;BME280;71372;43.514;1.512;2023-12-20T04:44:11;100827.34;;;8.03;83.22
81909;BME280;71372;43.514;1.512;2023-12-20T04:46:36;100830.00;;;8.03;83.49
81909;BME280;71372;43.514;1.512;2023-12-20T04:49:02;100828.31;;;8.00;84.05
81909;BME280;71372;43.514;1.512;2023-12-20T04:51:28;100821.19;;;8.02;83.65
81909;BME280;71372;43.514;1.512;2023-12-20T04:53:54;100821.13;;;8.05;84.07
81909;BME280;71372;43.514;1.512;2023-12-20T04:56:20;100813.09;;;8.08;83.67
81909;BME280;71372;43.514;1.512;2023-12-20T04:58:46;100812.25;;;8.06;83.92
81909;BME280;71372;43.514;1.512;2023-12-20T05:01:13;100810.44;;;8.08;84.45
81909;BME280;71372;43.514;1.512;2023-12-20T05:03:38;100802.44;;;8.10;84.85
81909;BME280;71372;43.514;1.512;2023-12-20T05:06:04;100802.47;;;8.08;84.96
81909;BME280;71372;43.514;1.512;2023-12-20T05:08:30;100799.00;;;8.06;85.38
81909;BME280;71372;43.514;1.512;2023-12-20T05:10:56;100801.44;;;8.14;84.63
81909;BME280;71372;43.514;1.512;2023-12-20T05:13:22;100798.81;;;8.12;85.27
81909;BME280;71372;43.514;1.512;2023-12-20T05:15:48;100793.41;;;8.17;85.57
81909;BME280;71372;43.514;1.512;2023-12-20T05:18:14;100802.09;;;8.22;85.51
81909;BME280;71372;43.514;1.512;2023-12-20T05:20:40;100795.03;;;8.23;86.03
81909;BME280;71372;43.514;1.512;2023-12-20T05:23:06;100803.06;;;8.19;86.17
81909;BME280;71372;43.514;1.512;2023-12-20T05:25:32;100802.03;;;8.25;86.75
81909;BME280;71372;43.514;1.512;2023-12-20T05:27:58;100804.53;;;8.31;86.13
81909;BME280;71372;43.514;1.512;2023-12-20T05:30:24;100802.75;;;8.32;86.72
81909;BME280;71372;43.514;1.512;2023-12-20T05:32:50;100810.66;;;8.35;86.04
81909;BME280;71372;43.514;1.512;2023-12-20T05:35:16;100815.00;;;8.37;86.16
81909;BME280;71372;43.514;1.512;2023-12-20T05:37:43;100817.66;;;8.37;86.68
81909;BME280;71372;43.514;1.512;2023-12-20T05:40:09;100818.41;;;8.42;86.45
81909;BME280;71372;43.514;1.512;2023-12-20T05:42:38;100821.09;;;8.41;87.04
81909;BME280;71372;43.514;1.512;2023-12-20T05:45:05;100818.38;;;8.44;86.97
81909;BME280;71372;43.514;1.512;2023-12-20T05:47:31;100821.94;;;8.43;87.08
81909;BME280;71372;43.514;1.512;2023-12-20T05:49:57;100835.94;;;8.48;86.43
81909;BME280;71372;43.514;1.512;2023-12-20T05:52:23;100835.00;;;8.49;87.19
81909;BME280;71372;43.514;1.512;2023-12-20T05:54:49;100833.03;;;8.57;86.31
81909;BME280;71372;43.514;1.512;2023-12-20T05:57:15;100843.59;;;8.59;86.96
81909;BME280;71372;43.514;1.512;2023-12-20T05:59:41;100841.88;;;8.58;86.54
81909;BME280;71372;43.514;1.512;2023-12-20T06:02:07;100836.47;;;8.61;87.05
81909;BME280;71372;43.514;1.512;2023-12-20T06:04:33;100843.44;;;8.65;87.33
81909;BME280;71372;43.514;1.512;2023-12-20T06:06:59;100860.16;;;8.68;87.43
81909;BME280;71372;43.514;1.512;2023-12-20T06:09:27;100860.94;;;8.72;86.82
81909;BME280;71372;43.514;1.512;2023-12-20T06:11:53;100861.75;;;8.74;86.92
81909;BME280;71372;43.514;1.512;2023-12-20T06:14:18;100867.88;;;8.76;87.03
81909;BME280;71372;43.514;1.512;2023-12-20T06:16:45;100881.97;;;8.79;86.87
81909;BME280;71372;43.514;1.512;2023-12-20T06:19:11;100883.66;;;8.82;87.30
81909;BME280;71372;43.514;1.512;2023-12-20T06:21:37;100892.28;;;8.90;86.88
81909;BME280;71372;43.514;1.512;2023-12-20T06:24:03;100894.94;;;8.90;87.43
81909;BME280;71372;43.514;1.512;2023-12-20T06:26:29;100879.00;;;8.90;86.63
81909;BME280;71372;43.514;1.512;2023-12-20T06:28:55;100890.47;;;8.92;87.43
81909;BME280;71372;43.514;1.512;2023-12-20T06:31:21;100892.09;;;8.96;87.95
81909;BME280;71372;43.514;1.512;2023-12-20T06:33:47;100905.34;;;8.98;87.41
81909;BME280;71372;43.514;1.512;2023-12-20T06:36:15;100902.69;;;8.98;87.41
81909;BME280;71372;43.514;1.512;2023-12-20T06:38:41;100905.19;;;9.04;87.23
81909;BME280;71372;43.514;1.512;2023-12-20T06:41:08;100905.84;;;9.11;86.38
81909;BME280;71372;43.514;1.512;2023-12-20T06:43:33;100916.41;;;9.14;87.06
81909;BME280;71372;43.514;1.512;2023-12-20T06:46:02;100912.75;;;9.18;86.98
81909;BME280;71372;43.514;1.512;2023-12-20T06:48:28;100910.16;;;9.16;87.09
81909;BME280;71372;43.514;1.512;2023-12-20T06:50:54;100923.47;;;9.15;87.68
81909;BME280;71372;43.514;1.512;2023-12-20T06:53:20;100929.75;;;9.12;87.69
81909;BME280;71372;43.514;1.512;2023-12-20T06:55:46;100934.00;;;9.18;87.20
81909;BME280;71372;43.514;1.512;2023-12-20T06:58:12;100931.34;;;9.18;87.64
81909;BME280;71372;43.514;1.512;2023-12-20T07:00:38;100945.34;;;9.24;87.94
81909;BME280;71372;43.514;1.512;2023-12-20T07:03:04;100942.53;;;9.29;86.90
81909;BME280;71372;43.514;1.512;2023-12-20T07:05:30;100957.63;;;9.28;87.11
81909;BME280;71372;43.514;1.512;2023-12-20T07:07:56;100954.00;;;9.31;86.72
81909;BME280;71372;43.514;1.512;2023-12-20T07:10:21;100957.41;;;9.36;86.91
81909;BME280;71372;43.514;1.512;2023-12-20T07:12:48;100966.19;;;9.38;86.67
81909;BME280;71372;43.514;1.512;2023-12-20T07:15:14;100973.22;;;9.41;87.04
81909;BME280;71372;43.514;1.512;2023-12-20T07:17:40;100974.94;;;9.42;87.16
81909;BME280;71372;43.514;1.512;2023-12-20T07:20:07;100978.47;;;9.42;87.22
81909;BME280;71372;43.514;1.512;2023-12-20T07:22:36;100983.75;;;9.44;87.13
81909;BME280;71372;43.514;1.512;2023-12-20T07:25:02;100982.78;;;9.46;86.74
81909;BME280;71372;43.514;1.512;2023-12-20T07:27:29;100988.97;;;9.47;86.28
81909;BME280;71372;43.514;1.512;2023-12-20T07:29:55;101002.41;;;9.42;87.25
81909;BME280;71372;43.514;1.512;2023-12-20T07:32:21;101011.38;;;9.38;87.51
81909;BME280;71372;43.514;1.512;2023-12-20T07:34:47;101012.19;;;9.40;86.57
81909;BME280;71372;43.514;1.512;2023-12-20T07:37:13;101004.38;;;9.34;86.88
81909;BME280;71372;43.514;1.512;2023-12-20T07:39:39;101020.25;;;9.37;86.60
81909;BME280;71372;43.514;1.512;2023-12-20T07:42:09;101022.81;;;9.40;87.09
81909;BME280;71372;43.514;1.512;2023-12-20T07:44:35;101042.53;;;9.31;86.95
81909;BME280;71372;43.514;1.512;2023-12-20T07:47:04;101047.09;;;9.28;86.78
81909;BME280;71372;43.514;1.512;2023-12-20T07:49:31;101049.69;;;9.29;86.77
81909;BME280;71372;43.514;1.512;2023-12-20T07:51:57;101055.88;;;9.30;86.29
81909;BME280;71372;43.514;1.512;2023-12-20T07:54:23;101063.97;;;9.25;86.56
81909;BME280;71372;43.514;1.512;2023-12-20T07:56:49;101072.78;;;9.27;86.49
81909;BME280;71372;43.514;1.512;2023-12-20T07:59:15;101073.66;;;9.28;85.79
81909;BME280;71372;43.514;1.512;2023-12-20T08:01:41;101082.63;;;9.24;86.16
81909;BME280;71372;43.514;1.512;2023-12-20T08:04:08;101091.47;;;9.24;85.78
81909;BME280;71372;43.514;1.512;2023-12-20T08:06:34;101095.00;;;9.25;85.95
81909;BME280;71372;43.514;1.512;2023-12-20T08:09:00;101101.13;;;9.27;85.80
81909;BME280;71372;43.514;1.512;2023-12-20T08:11:26;101107.41;;;9.23;85.92
81909;BME280;71372;43.514;1.512;2023-12-20T08:13:52;101116.31;;;9.22;85.89
81909;BME280;71372;43.514;1.512;2023-12-20T08:16:18;101120.88;;;9.17;85.89
81909;BME280;71372;43.514;1.512;2023-12-20T08:18:44;101127.09;;;9.16;85.92
81909;BME280;71372;43.514;1.512;2023-12-20T08:21:10;101129.81;;;9.14;85.27
81909;BME280;71372;43.514;1.512;2023-12-20T08:23:37;101142.16;;;9.15;85.75
81909;BME280;71372;43.514;1.512;2023-12-20T08:26:07;101142.16;;;9.15;85.40
81909;BME280;71372;43.514;1.512;2023-12-20T08:28:33;101146.69;;;9.12;85.42
81909;BME280;71372;43.514;1.512;2023-12-20T08:30:59;101162.56;;;9.15;85.46
81909;BME280;71372;43.514;1.512;2023-12-20T08:33:25;101160.81;;;9.14;85.26
81909;BME280;71372;43.514;1.512;2023-12-20T08:35:51;101168.81;;;9.11;85.29
81909;BME280;71372;43.514;1.512;2023-12-20T08:38:17;101168.91;;;9.07;85.21
81909;BME280;71372;43.514;1.512;2023-12-20T08:40:44;101175.22;;;9.03;85.57
81909;BME280;71372;43.514;1.512;2023-12-20T08:43:10;101183.06;;;9.08;84.51
81909;BME280;71372;43.514;1.512;2023-12-20T08:45:37;101187.50;;;9.07;85.10
81909;BME280;71372;43.514;1.512;2023-12-20T08:48:03;101198.13;;;9.07;85.46
81909;BME280;71372;43.514;1.512;2023-12-20T08:50:29;101203.53;;;9.04;84.98
81909;BME280;71372;43.514;1.512;2023-12-20T08:52:55;101208.75;;;9.07;84.66
81909;BME280;71372;43.514;1.512;2023-12-20T08:55:21;101231.81;;;9.05;85.06
81909;BME280;71372;43.514;1.512;2023-12-20T08:57:47;101224.72;;;9.06;84.63
81909;BME280;71372;43.514;1.512;2023-12-20T09:00:13;101229.06;;;9.10;84.70
81909;BME280;71372;43.514;1.512;2023-12-20T09:02:39;101231.75;;;9.08;84.63
81909;BME280;71372;43.514;1.512;2023-12-20T09:05:05;101236.31;;;9.03;84.17
81909;BME280;71372;43.514;1.512;2023-12-20T09:07:31;101243.31;;;9.06;84.48
81909;BME280;71372;43.514;1.512;2023-12-20T09:09:58;101246.72;;;9.13;84.46
81909;BME280;71372;43.514;1.512;2023-12-20T09:12:24;101250.06;;;9.21;84.26
81909;BME280;71372;43.514;1.512;2023-12-20T09:14:51;101258.84;;;9.24;84.59
81909;BME280;71372;43.514;1.512;2023-12-20T09:17:18;101261.47;;;9.26;84.31
81909;BME280;71372;43.514;1.512;2023-12-20T09:19:45;101266.84;;;9.23;83.86
81909;BME280;71372;43.514;1.512;2023-12-20T09:22:11;101271.25;;;9.24;83.99
81909;BME280;71372;43.514;1.512;2023-12-20T09:24:38;101276.78;;;9.15;84.13
81909;BME280;71372;43.514;1.512;2023-12-20T09:27:06;101284.47;;;9.27;83.82
81909;BME280;71372;43.514;1.512;2023-12-20T09:29:33;101289.91;;;9.21;83.67
81909;BME280;71372;43.514;1.512;2023-12-20T09:31:59;101288.00;;;9.27;83.92
81909;BME280;71372;43.514;1.512;2023-12-20T09:34:25;101298.50;;;9.32;82.81
81909;BME280;71372;43.514;1.512;2023-12-20T09:36:51;101302.00;;;9.34;83.51
81909;BME280;71372;43.514;1.512;2023-12-20T09:39:19;101295.09;;;9.27;83.46
81909;BME280;71372;43.514;1.512;2023-12-20T09:41:55;101292.31;;;9.31;83.34
81909;BME280;71372;43.514;1.512;2023-12-20T09:44:25;101294.91;;;9.34;82.75
81909;BME280;71372;43.514;1.512;2023-12-20T09:46:52;101301.97;;;9.37;83.93
81909;BME280;71372;43.514;1.512;2023-12-20T09:49:20;101308.94;;;9.41;83.14
81909;BME280;71372;43.514;1.512;2023-12-20T09:51:47;101302.53;;;9.50;83.05
81909;BME280;71372;43.514;1.512;2023-12-20T09:54:14;101309.56;;;9.52;82.64
81909;BME280;71372;43.514;1.512;2023-12-20T09:56:41;101302.50;;;9.51;83.23
81909;BME280;71372;43.514;1.512;2023-12-20T09:59:07;101307.72;;;9.54;82.95
81909;BME280;71372;43.514;1.512;2023-12-20T10:01:33;101315.66;;;9.56;83.05
81909;BME280;71372;43.514;1.512;2023-12-20T10:04:05;101317.31;;;9.61;82.64
81909;BME280;71372;43.514;1.512;2023-12-20T10:06:43;101313.56;;;9.70;82.69
81909;BME280;71372;43.514;1.512;2023-12-20T10:09:12;101314.41;;;9.71;82.35
81909;BME280;71372;43.514;1.512;2023-12-20T10:11:39;101320.34;;;9.82;81.87
81909;BME280;71372;43.514;1.512;2023-12-20T10:14:06;101313.06;;;9.90;82.00
81909;BME280;71372;43.514;1.512;2023-12-20T10:16:33;101312.66;;;10.05;82.26
81909;BME280;71372;43.514;1.512;2023-12-20T10:19:00;101307.06;;;10.16;81.73
81909;BME280;71372;43.514;1.512;2023-12-20T10:21:26;101319.31;;;10.24;81.37
81909;BME280;71372;43.514;1.512;2023-12-20T10:23:58;101320.03;;;10.30;81.35
81909;BME280;71372;43.514;1.512;2023-12-20T10:26:26;101316.41;;;10.34;81.11
81909;BME280;71372;43.514;1.512;2023-12-20T10:29:00;101318.28;;;10.30;80.69
81909;BME280;71372;43.514;1.512;2023-12-20T10:31:26;101317.19;;;10.37;81.06
81909;BME280;71372;43.514;1.512;2023-12-20T10:33:53;101312.00;;;10.33;80.50
81909;BME280;71372;43.514;1.512;2023-12-20T10:36:19;101302.09;;;10.38;80.20
81909;BME280;71372;43.514;1.512;2023-12-20T10:38:46;101296.81;;;10.36;80.16
81909;BME280;71372;43.514;1.512;2023-12-20T10:41:12;101295.78;;;10.42;80.19
81909;BME280;71372;43.514;1.512;2023-12-20T10:43:39;101295.50;;;10.51;79.88
81909;BME280;71372;43.514;1.512;2023-12-20T10:46:05;101290.28;;;10.48;79.38
81909;BME280;71372;43.514;1.512;2023-12-20T10:48:32;101291.91;;;10.52;79.46
81909;BME280;71372;43.514;1.512;2023-12-20T10:50:58;101288.38;;;10.51;79.49
81909;BME280;71372;43.514;1.512;2023-12-20T10:53:27;101277.63;;;10.56;79.30
81909;BME280;71372;43.514;1.512;2023-12-20T10:55:55;101282.16;;;10.52;78.74
81909;BME280;71372;43.514;1.512;2023-12-20T10:58:24;101277.63;;;10.56;79.24
81909;BME280;71372;43.514;1.512;2023-12-20T11:00:54;101282.56;;;10.70;79.36
81909;BME280;71372;43.514;1.512;2023-12-20T11:03:26;101282.00;;;10.59;78.03
81909;BME280;71372;43.514;1.512;2023-12-20T11:06:00;101284.69;;;10.57;77.67
81909;BME280;71372;43.514;1.512;2023-12-20T11:08:36;101278.31;;;10.63;77.74
81909;BME280;71372;43.514;1.512;2023-12-20T11:11:12;101285.44;;;10.62;77.92
81909;BME280;71372;43.514;1.512;2023-12-20T11:13:44;101276.41;;;10.68;77.70
81909;BME280;71372;43.514;1.512;2023-12-20T11:16:14;101277.09;;;10.74;78.28
81909;BME280;71372;43.514;1.512;2023-12-20T11:18:40;101273.94;;;10.60;77.86
81909;BME280;71372;43.514;1.512;2023-12-20T11:21:06;101273.34;;;10.50;77.48
81909;BME280;71372;43.514;1.512;2023-12-20T11:23:32;101268.81;;;10.54;77.14
81909;BME280;71372;43.514;1.512;2023-12-20T11:26:02;101268.84;;;10.52;77.06
81909;BME280;71372;43.514;1.512;2023-12-20T11:28:28;101259.75;;;10.60;76.80
81909;BME280;71372;43.514;1.512;2023-12-20T11:30:58;101248.38;;;10.54;76.59
81909;BME280;71372;43.514;1.512;2023-12-20T11:33:35;101251.41;;;10.42;75.89
81909;BME280;71372;43.514;1.512;2023-12-20T11:36:01;101258.75;;;10.33;75.98
81909;BME280;71372;43.514;1.512;2023-12-20T11:38:37;101258.19;;;10.21;75.40
81909;BME280;71372;43.514;1.512;2023-12-20T11:41:06;101260.28;;;10.09;75.88
81909;BME280;71372;43.514;1.512;2023-12-20T11:43:35;101256.78;;;10.05;76.75
81909;BME280;71372;43.514;1.512;2023-12-20T11:46:08;101245.47;;;9.99;76.42
81909;BME280;71372;43.514;1.512;2023-12-20T11:48:39;101247.34;;;9.95;76.84
81909;BME280;71372;43.514;1.512;2023-12-20T11:51:09;101241.16;;;9.93;76.96
81909;BME280;71372;43.514;1.512;2023-12-20T11:53:36;101242.25;;;9.86;76.21
81909;BME280;71372;43.514;1.512;2023-12-20T11:56:04;101243.09;;;9.88;76.40
81909;BME280;71372;43.514;1.512;2023-12-20T11:58:32;101242.50;;;9.77;75.30
81909;BME280;71372;43.514;1.512;2023-12-20T12:00:58;101243.50;;;9.73;76.31
81909;BME280;71372;43.514;1.512;2023-12-20T12:03:24;101247.13;;;9.68;75.53
81909;BME280;71372;43.514;1.512;2023-12-20T12:05:50;101248.25;;;9.60;75.82
81909;BME280;71372;43.514;1.512;2023-12-20T12:08:19;101247.50;;;9.53;75.91
81909;BME280;71372;43.514;1.512;2023-12-20T12:10:45;101247.56;;;9.52;76.38
81909;BME280;71372;43.514;1.512;2023-12-20T12:13:11;101252.09;;;9.48;75.10
81909;BME280;71372;43.514;1.512;2023-12-20T12:15:37;101255.53;;;9.52;74.70
81909;BME280;71372;43.514;1.512;2023-12-20T12:18:04;101263.38;;;9.56;73.82
81909;BME280;71372;43.514;1.512;2023-12-20T12:20:31;101256.88;;;9.68;73.91
81909;BME280;71372;43.514;1.512;2023-12-20T12:22:58;101248.84;;;9.71;74.00
81909;BME280;71372;43.514;1.512;2023-12-20T12:25:24;101263.84;;;9.74;72.12
81909;BME280;71372;43.514;1.512;2023-12-20T12:27:51;101262.94;;;9.75;72.13
81909;BME280;71372;43.514;1.512;2023-12-20T12:30:16;101262.75;;;9.81;72.50
81909;BME280;71372;43.514;1.512;2023-12-20T12:32:44;101262.88;;;9.76;71.65
81909;BME280;71372;43.514;1.512;2023-12-20T12:35:10;101259.22;;;9.80;71.57
81909;BME280;71372;43.514;1.512;2023-12-20T12:37:40;101268.63;;;9.95;71.50
81909;BME280;71372;43.514;1.512;2023-12-20T12:40:10;101272.75;;;10.07;71.32
81909;BME280;71372;43.514;1.512;2023-12-20T12:42:41;101265.38;;;10.16;70.90
81909;BME280;71372;43.514;1.512;2023-12-20T12:45:07;101260.81;;;10.23;70.92
81909;BME280;71372;43.514;1.512;2023-12-20T12:47:34;101272.38;;;10.20;68.63
81909;BME280;71372;43.514;1.512;2023-12-20T12:50:00;101265.97;;;10.28;69.81
81909;BME280;71372;43.514;1.512;2023-12-20T12:52:27;101267.22;;;10.47;69.97
81909;BME280;71372;43.514;1.512;2023-12-20T12:54:53;101259.72;;;10.61;67.89
81909;BME280;71372;43.514;1.512;2023-12-20T12:57:19;101253.75;;;10.82;68.48